createdAt,value
2022-12-24T00:01:40.071Z,3.30
2022-12-24T00:04:08.582Z,3.63
2022-12-24T00:06:36.967Z,4.37
2022-12-24T00:09:05.583Z,3.40
2022-12-24T00:11:35.255Z,3.70
2022-12-24T00:14:05.748Z,3.20
2022-12-24T00:16:37.136Z,4.10
2022-12-24T00:19:06.263Z,4.27
2022-12-24T00:21:34.725Z,2.93
2022-12-24T00:24:07.959Z,3.73
2022-12-24T00:26:37.690Z,3.37
2022-12-24T00:29:07.716Z,3.87
2022-12-24T00:31:35.908Z,3.27
2022-12-24T00:34:05.411Z,4.50
2022-12-24T00:36:33.522Z,3.57
2022-12-24T00:39:03.075Z,4.03
2022-12-24T00:41:35.422Z,3.53
2022-12-24T00:44:06.709Z,4.57
2022-12-24T00:46:35.665Z,3.87
2022-12-24T00:49:05.061Z,3.67
2022-12-24T00:51:34.014Z,3.23
2022-12-24T00:54:02.794Z,2.40
2022-12-24T00:56:31.301Z,3.93
2022-12-24T00:59:00.002Z,3.40
2022-12-24T01:01:33.329Z,4.80
2022-12-24T01:04:17.365Z,3.90
2022-12-24T01:06:46.528Z,4.00
2022-12-24T01:09:15.394Z,3.13
2022-12-24T01:11:43.618Z,3.53
2022-12-24T01:14:11.612Z,3.27
2022-12-24T01:16:41.055Z,4.77
2022-12-24T01:19:09.130Z,3.67
2022-12-24T01:21:37.130Z,3.43
2022-12-24T01:24:06.157Z,3.50
2022-12-24T01:26:34.273Z,3.37
2022-12-24T01:29:02.494Z,4.00
2022-12-24T01:31:32.104Z,4.13
2022-12-24T01:34:01.863Z,3.77
2022-12-24T01:36:31.631Z,3.30
2022-12-24T01:39:00.346Z,3.47
2022-12-24T01:41:46.376Z,3.40
2022-12-24T01:44:22.226Z,4.73
2022-12-24T01:46:51.850Z,3.50
2022-12-24T01:49:21.878Z,3.33
2022-12-24T01:51:52.804Z,3.30
2022-12-24T01:54:24.018Z,3.20
2022-12-24T01:56:54.083Z,4.10
2022-12-24T01:59:22.577Z,3.37
2022-12-24T02:01:51.709Z,3.57
2022-12-24T02:04:27.036Z,3.57
2022-12-24T02:06:55.033Z,3.47
2022-12-24T02:09:23.198Z,2.83
2022-12-24T02:11:51.337Z,3.80
2022-12-24T02:14:19.596Z,3.33
2022-12-24T02:16:52.969Z,2.97
2022-12-24T02:19:56.362Z,3.93
2022-12-24T02:22:31.539Z,2.63
2022-12-24T02:25:21.400Z,2.67
2022-12-24T02:27:56.512Z,3.50
2022-12-24T02:30:26.389Z,3.17
2022-12-24T02:33:00.329Z,3.43
2022-12-24T02:35:34.646Z,3.43
2022-12-24T02:38:05.182Z,3.20
2022-12-24T02:40:37.752Z,3.10
2022-12-24T02:43:10.928Z,3.47
2022-12-24T02:45:41.644Z,3.20
2022-12-24T02:48:10.524Z,3.10
2022-12-24T02:50:38.653Z,3.17
2022-12-24T02:53:07.283Z,2.73
2022-12-24T02:55:41.043Z,3.47
2022-12-24T02:58:18.429Z,3.27
2022-12-24T03:00:54.337Z,3.03
2022-12-24T03:03:34.636Z,3.63
2022-12-24T03:06:09.423Z,3.03
2022-12-24T03:08:45.205Z,3.03
2022-12-24T03:11:15.348Z,3.13
2022-12-24T03:13:44.025Z,2.70
2022-12-24T03:16:16.734Z,3.53
2022-12-24T03:18:47.874Z,3.20
2022-12-24T03:21:18.993Z,2.73
2022-12-24T03:23:47.059Z,3.30
2022-12-24T03:26:17.561Z,2.63
2022-12-24T03:28:46.737Z,2.93
2022-12-24T03:31:16.496Z,2.77
2022-12-24T03:33:44.943Z,3.80
2022-12-24T03:36:13.816Z,2.77
2022-12-24T03:38:42.228Z,3.33
2022-12-24T03:41:10.315Z,2.97
2022-12-24T03:43:38.458Z,3.43
2022-12-24T03:46:07.629Z,3.10
2022-12-24T03:48:37.363Z,2.83
2022-12-24T03:51:05.867Z,3.03
2022-12-24T03:53:33.936Z,2.87
2022-12-24T03:56:01.946Z,2.90
2022-12-24T03:58:30.027Z,3.20
2022-12-24T04:00:58.058Z,3.30
2022-12-24T04:03:26.196Z,3.50
2022-12-24T04:06:03.490Z,3.23
2022-12-24T04:08:31.482Z,3.40
2022-12-24T04:11:03.422Z,3.20
2022-12-24T04:13:34.304Z,3.60
2022-12-24T04:16:04.097Z,3.17
2022-12-24T04:18:32.314Z,3.40
2022-12-24T04:21:00.474Z,3.60
2022-12-24T04:23:31.710Z,3.23
2022-12-24T04:26:00.383Z,3.03
2022-12-24T04:28:29.696Z,2.57
2022-12-24T04:30:59.953Z,2.13
2022-12-24T04:33:28.209Z,2.00
2022-12-24T04:35:56.402Z,2.20
2022-12-24T04:38:24.415Z,3.07
2022-12-24T04:41:03.493Z,2.20
2022-12-24T04:43:31.578Z,1.93
2022-12-24T04:46:06.471Z,1.67
2022-12-24T04:48:34.760Z,1.43
2022-12-24T04:51:04.256Z,2.03
2022-12-24T04:53:32.868Z,2.00
2022-12-24T04:56:02.566Z,1.60
2022-12-24T04:58:30.889Z,1.67
2022-12-24T05:01:05.115Z,1.80
2022-12-24T05:03:33.446Z,1.43
2022-12-24T05:06:05.256Z,2.07
2022-12-24T05:08:33.852Z,2.20
2022-12-24T05:11:03.603Z,2.00
2022-12-24T05:13:37.924Z,2.10
2022-12-24T05:16:08.818Z,2.10
2022-12-24T05:18:36.846Z,2.17
2022-12-24T05:21:09.435Z,2.03
2022-12-24T05:24:11.073Z,2.10
2022-12-24T05:26:43.130Z,2.37
2022-12-24T05:29:13.163Z,2.43
2022-12-24T05:31:42.410Z,2.83
2022-12-24T05:34:11.927Z,2.97
2022-12-24T05:36:40.281Z,2.50
2022-12-24T05:39:15.128Z,2.90
2022-12-24T05:41:46.097Z,2.70
2022-12-24T05:44:14.491Z,3.10
2022-12-24T05:46:42.837Z,2.50
2022-12-24T05:49:11.118Z,2.20
2022-12-24T05:51:40.365Z,2.47
2022-12-24T05:54:08.514Z,2.60
2022-12-24T05:56:36.800Z,1.90
2022-12-24T05:59:06.181Z,2.17
2022-12-24T06:01:34.266Z,2.20
2022-12-24T06:04:03.246Z,1.60
2022-12-24T06:06:31.270Z,2.30
2022-12-24T06:08:59.717Z,2.00
2022-12-24T06:11:29.033Z,1.60
2022-12-24T06:13:57.468Z,1.80
2022-12-24T06:16:27.301Z,1.70
2022-12-24T06:18:55.554Z,1.73
2022-12-24T06:21:23.674Z,2.10
2022-12-24T06:23:51.811Z,2.70
2022-12-24T06:26:21.976Z,1.50
2022-12-24T06:28:50.739Z,1.30
2022-12-24T06:31:20.724Z,1.23
2022-12-24T06:33:50.903Z,1.50
2022-12-24T06:36:20.894Z,1.47
2022-12-24T06:38:49.296Z,1.50
2022-12-24T06:41:17.703Z,1.57
2022-12-24T06:43:46.746Z,1.67
2022-12-24T06:46:14.992Z,1.77
2022-12-24T06:48:44.148Z,1.60
2022-12-24T06:51:14.060Z,2.07
2022-12-24T06:53:42.210Z,2.30
2022-12-24T06:56:12.909Z,2.50
2022-12-24T06:58:41.746Z,2.90
2022-12-24T07:01:12.032Z,2.13
2022-12-24T07:03:40.650Z,3.30
2022-12-24T07:06:09.437Z,3.47
2022-12-24T07:08:38.875Z,2.90
2022-12-24T07:11:06.975Z,2.67
2022-12-24T07:13:35.196Z,3.10
2022-12-24T07:16:05.105Z,3.27
2022-12-24T07:18:33.575Z,3.57
2022-12-24T07:21:01.864Z,3.23
2022-12-24T07:23:31.166Z,3.63
2022-12-24T07:26:02.978Z,4.22
2022-12-24T07:28:31.309Z,3.90
2022-12-24T07:31:00.107Z,3.97
2022-12-24T07:33:28.484Z,3.50
2022-12-24T07:36:01.382Z,3.63
2022-12-24T07:38:30.263Z,4.50
2022-12-24T07:40:58.943Z,4.47
2022-12-24T07:43:29.102Z,4.03
2022-12-24T07:45:58.003Z,5.00
2022-12-24T07:48:26.964Z,3.80
2022-12-24T07:50:55.120Z,4.30
2022-12-24T07:53:23.211Z,4.93
2022-12-24T07:55:51.399Z,3.90
2022-12-24T07:58:19.710Z,4.30
2022-12-24T08:00:49.067Z,4.40
2022-12-24T08:03:18.734Z,3.83
2022-12-24T08:05:47.349Z,4.30
2022-12-24T08:08:15.689Z,4.37
2022-12-24T08:10:45.305Z,3.90
2022-12-24T08:13:13.362Z,4.50
2022-12-24T08:15:41.526Z,3.97
2022-12-24T08:18:11.010Z,5.03
2022-12-24T08:20:40.016Z,5.10
2022-12-24T08:23:08.798Z,4.23
2022-12-24T08:25:37.595Z,4.27
2022-12-24T08:28:06.302Z,3.60
2022-12-24T08:30:34.720Z,4.97
2022-12-24T08:33:03.045Z,4.30
2022-12-24T08:35:32.551Z,3.97
2022-12-24T08:38:00.648Z,4.40
2022-12-24T08:40:29.079Z,4.60
2022-12-24T08:42:57.295Z,3.73
2022-12-24T08:45:25.324Z,4.57
2022-12-24T08:47:53.353Z,4.47
2022-12-24T08:50:21.495Z,4.57
2022-12-24T08:52:50.976Z,4.13
2022-12-24T08:55:19.198Z,5.27
2022-12-24T08:57:47.331Z,3.90
2022-12-24T09:00:16.404Z,4.97
2022-12-24T09:02:44.586Z,4.40
2022-12-24T09:05:12.912Z,4.67
2022-12-24T09:07:41.201Z,4.27
2022-12-24T09:10:12.200Z,4.17
2022-12-24T09:12:40.262Z,4.47
2022-12-24T09:15:09.516Z,4.00
2022-12-24T09:17:37.750Z,3.77
2022-12-24T09:20:07.473Z,3.77
2022-12-24T09:22:36.480Z,4.00
2022-12-24T09:25:05.160Z,4.93
2022-12-24T09:27:34.663Z,3.70
2022-12-24T09:30:02.664Z,3.93
2022-12-24T09:32:31.307Z,3.83
2022-12-24T09:34:59.357Z,3.83
2022-12-24T09:37:27.510Z,4.00
2022-12-24T09:39:55.546Z,4.60
2022-12-24T09:42:31.445Z,4.10
2022-12-24T09:45:05.000Z,4.00
2022-12-24T09:47:36.289Z,3.90
2022-12-24T09:50:08.753Z,3.80
2022-12-24T09:52:40.741Z,4.30
2022-12-24T09:55:26.323Z,4.47
2022-12-24T09:57:56.131Z,4.07
2022-12-24T10:00:30.546Z,3.90
2022-12-24T10:02:58.729Z,4.47
2022-12-24T10:05:33.547Z,3.77
2022-12-24T10:08:09.647Z,4.57
2022-12-24T10:10:42.202Z,4.23
2022-12-24T10:13:16.426Z,4.73
2022-12-24T10:15:51.544Z,4.53
2022-12-24T10:18:28.713Z,3.90
2022-12-24T10:21:02.456Z,4.00
2022-12-24T10:23:34.206Z,4.07
2022-12-24T10:26:11.203Z,4.70
2022-12-24T10:28:46.878Z,5.40
2022-12-24T10:31:16.854Z,5.10
2022-12-24T10:33:47.315Z,5.80
2022-12-24T10:36:19.105Z,4.07
2022-12-24T10:38:47.823Z,4.87
2022-12-24T10:41:16.384Z,4.47
2022-12-24T10:43:45.828Z,3.80
2022-12-24T10:46:20.134Z,4.07
2022-12-24T10:48:53.255Z,5.57
2022-12-24T10:51:23.904Z,5.00
2022-12-24T10:53:57.276Z,5.00
2022-12-24T10:56:25.575Z,5.03
2022-12-24T10:58:55.354Z,4.13
2022-12-24T11:01:44.735Z,4.97
2022-12-24T11:04:17.408Z,4.27
2022-12-24T11:06:54.651Z,5.53
2022-12-24T11:09:24.736Z,4.53
2022-12-24T11:11:52.858Z,4.47
2022-12-24T11:14:21.944Z,4.17
2022-12-24T11:16:56.301Z,4.47
2022-12-24T11:19:31.827Z,3.80
2022-12-24T11:22:02.762Z,4.20
2022-12-24T11:24:32.642Z,4.87
2022-12-24T11:27:29.861Z,5.13
2022-12-24T11:30:14.814Z,4.47
2022-12-24T11:32:44.902Z,4.87
2022-12-24T11:35:22.219Z,4.27
2022-12-24T11:37:50.927Z,4.43
2022-12-24T11:40:24.377Z,4.60
2022-12-24T11:42:54.360Z,3.73
2022-12-24T11:45:24.527Z,3.93
2022-12-24T11:47:54.633Z,3.77
2022-12-24T11:50:26.472Z,3.80
2022-12-24T11:53:00.540Z,4.53
2022-12-24T11:55:41.924Z,4.33
2022-12-24T11:58:19.915Z,5.20
2022-12-24T12:00:49.192Z,3.97
2022-12-24T12:03:27.865Z,4.63
2022-12-24T12:05:56.638Z,4.83
2022-12-24T12:08:25.053Z,4.17
2022-12-24T12:10:54.571Z,5.07
2022-12-24T12:13:25.503Z,4.77
2022-12-24T12:16:12.209Z,4.63
2022-12-24T12:18:43.622Z,4.53
2022-12-24T12:21:16.264Z,4.10
2022-12-24T12:23:46.258Z,4.50
2022-12-24T12:26:16.913Z,5.03
2022-12-24T12:28:47.561Z,4.87
2022-12-24T12:31:22.483Z,4.07
2022-12-24T12:33:55.982Z,4.33
2022-12-24T12:36:28.226Z,3.90
2022-12-24T12:38:56.343Z,3.53
2022-12-24T12:41:32.109Z,4.57
2022-12-24T12:44:16.407Z,4.00
2022-12-24T12:46:57.046Z,4.07
2022-12-24T12:49:34.983Z,4.13
2022-12-24T12:52:09.165Z,4.43
2022-12-24T12:54:48.515Z,3.57
2022-12-24T12:57:20.107Z,3.87
2022-12-24T12:59:51.770Z,4.23
2022-12-24T13:02:32.574Z,4.27
2022-12-24T13:05:42.741Z,4.23
2022-12-24T13:08:21.668Z,5.03
2022-12-24T13:11:05.895Z,4.87
2022-12-24T13:13:51.253Z,3.73
2022-12-24T13:16:54.200Z,5.70
2022-12-24T13:19:37.669Z,5.73
2022-12-24T13:22:16.249Z,4.93
2022-12-24T13:24:52.181Z,5.87
2022-12-24T13:27:24.237Z,5.83
2022-12-24T13:29:56.949Z,5.13
2022-12-24T13:32:55.965Z,5.53
2022-12-24T13:35:36.937Z,5.77
2022-12-24T13:38:33.410Z,5.00
2022-12-24T13:41:53.704Z,4.43
2022-12-24T13:44:32.605Z,4.93
2022-12-24T13:47:04.901Z,4.83
2022-12-24T13:49:35.832Z,4.23
2022-12-24T13:52:26.261Z,4.17
2022-12-24T13:55:16.916Z,5.33
2022-12-24T13:57:49.252Z,4.07
2022-12-24T14:00:33.299Z,3.93
2022-12-24T14:03:04.699Z,4.60
2022-12-24T14:05:35.815Z,4.10
2022-12-24T14:08:06.544Z,4.23
2022-12-24T14:10:40.599Z,4.00
2022-12-24T14:13:51.664Z,4.10
2022-12-24T14:16:22.761Z,4.67
2022-12-24T14:18:58.851Z,4.27
2022-12-24T14:21:30.852Z,4.07
2022-12-24T14:24:01.331Z,4.03
2022-12-24T14:26:35.402Z,4.07
2022-12-24T14:29:08.239Z,4.23
2022-12-24T14:31:36.353Z,4.77
2022-12-24T14:34:08.762Z,5.00
2022-12-24T14:36:37.236Z,4.07
2022-12-24T14:39:07.166Z,4.47
2022-12-24T14:41:45.351Z,4.53
2022-12-24T14:44:21.335Z,4.00
2022-12-24T14:46:54.038Z,4.73
2022-12-24T14:49:30.303Z,5.00
2022-12-24T14:52:03.976Z,4.10
2022-12-24T14:54:39.931Z,4.37
2022-12-24T14:57:12.825Z,4.67
2022-12-24T14:59:45.990Z,4.70
2022-12-24T15:02:26.244Z,4.33
2022-12-24T15:05:08.861Z,4.17
2022-12-24T15:07:46.983Z,5.10
2022-12-24T15:10:27.127Z,5.40
2022-12-24T15:12:58.200Z,4.17
2022-12-24T15:15:26.242Z,4.23
2022-12-24T15:17:55.393Z,4.63
2022-12-24T15:20:26.325Z,4.37
2022-12-24T15:22:56.460Z,4.17
2022-12-24T15:25:26.549Z,5.00
2022-12-24T15:27:56.210Z,4.83
2022-12-24T15:30:26.473Z,4.73
2022-12-24T15:32:56.007Z,4.93
2022-12-24T15:35:47.275Z,5.27
2022-12-24T15:38:25.576Z,5.33
2022-12-24T15:40:54.743Z,4.83
2022-12-24T15:43:24.675Z,4.40
2022-12-24T15:45:53.904Z,5.43
2022-12-24T15:48:25.121Z,5.13
2022-12-24T15:50:54.909Z,6.23
2022-12-24T15:53:28.429Z,6.20
2022-12-24T15:56:08.160Z,6.13
2022-12-24T15:58:38.942Z,6.43
2022-12-24T16:01:28.329Z,5.10
2022-12-24T16:03:59.112Z,5.47
2022-12-24T16:06:28.903Z,5.07
2022-12-24T16:08:58.682Z,5.87
2022-12-24T16:11:34.850Z,4.77
2022-12-24T16:14:10.648Z,4.97
2022-12-24T16:16:42.789Z,4.83
2022-12-24T16:19:18.186Z,4.83
2022-12-24T16:21:46.595Z,4.93
2022-12-24T16:24:17.486Z,5.37
2022-12-24T16:26:46.011Z,4.70
2022-12-24T16:29:15.918Z,4.70
2022-12-24T16:31:45.827Z,4.77
2022-12-24T16:34:16.007Z,5.23
2022-12-24T16:36:45.021Z,5.30
2022-12-24T16:39:29.289Z,4.77
2022-12-24T16:42:15.902Z,4.97
2022-12-24T16:44:45.785Z,5.17
2022-12-24T16:47:15.847Z,5.20
2022-12-24T16:49:44.048Z,5.33
2022-12-24T16:52:16.685Z,5.53
2022-12-24T16:54:44.864Z,5.37
2022-12-24T16:57:13.079Z,5.10
2022-12-24T16:59:41.412Z,6.00
2022-12-24T17:02:15.390Z,5.60
2022-12-24T17:04:44.147Z,5.63
2022-12-24T17:07:12.738Z,6.17
2022-12-24T17:09:41.209Z,6.30
2022-12-24T17:12:09.410Z,7.20
2022-12-24T17:14:38.848Z,7.07
2022-12-24T17:17:07.097Z,6.33
2022-12-24T17:19:37.678Z,7.93
2022-12-24T17:22:05.872Z,8.20
2022-12-24T17:24:33.963Z,8.27
2022-12-24T17:27:02.031Z,7.03
2022-12-24T17:29:30.365Z,7.90
2022-12-24T17:31:58.568Z,8.17
2022-12-24T17:34:26.728Z,7.73
2022-12-24T17:36:56.190Z,8.07
2022-12-24T17:39:27.892Z,7.27
2022-12-24T17:41:57.208Z,7.43
2022-12-24T17:44:25.503Z,7.57
2022-12-24T17:46:53.714Z,7.03
2022-12-24T17:49:21.859Z,8.20
2022-12-24T17:51:50.091Z,7.20
2022-12-24T17:54:19.528Z,8.83
2022-12-24T17:56:47.693Z,7.23
2022-12-24T17:59:15.978Z,7.73
2022-12-24T18:01:44.265Z,7.57
2022-12-24T18:04:12.531Z,7.73
2022-12-24T18:06:44.286Z,8.47
2022-12-24T18:09:17.088Z,7.50
2022-12-24T18:11:46.852Z,9.60
2022-12-24T18:14:15.459Z,12.17
2022-12-24T18:16:44.010Z,11.77
2022-12-24T18:19:13.582Z,12.20
2022-12-24T18:21:42.096Z,12.87
2022-12-24T18:24:10.435Z,14.00
2022-12-24T18:26:38.581Z,13.53
2022-12-24T18:29:08.856Z,12.77
2022-12-24T18:31:37.701Z,12.83
2022-12-24T18:34:08.409Z,12.67
2022-12-24T18:36:36.828Z,11.23
2022-12-24T18:39:06.178Z,11.63
2022-12-24T18:41:35.491Z,11.20
2022-12-24T18:44:03.728Z,9.77
2022-12-24T18:46:34.806Z,8.53
2022-12-24T18:49:03.137Z,9.37
2022-12-24T18:51:34.454Z,6.37
2022-12-24T18:54:03.506Z,6.97
2022-12-24T18:56:32.052Z,8.23
2022-12-24T18:59:01.971Z,8.10
2022-12-24T19:01:34.536Z,8.30
2022-12-24T19:04:03.076Z,7.70
2022-12-24T19:06:31.650Z,9.47
2022-12-24T19:09:01.153Z,9.00
2022-12-24T19:11:30.978Z,9.10
2022-12-24T19:13:59.544Z,8.43
2022-12-24T19:16:28.566Z,7.80
2022-12-24T19:18:58.590Z,6.97
2022-12-24T19:21:26.925Z,8.60
2022-12-24T19:23:55.025Z,7.23
2022-12-24T19:26:23.324Z,5.30
2022-12-24T19:28:51.695Z,5.40
2022-12-24T19:31:22.244Z,5.40
2022-12-24T19:33:52.450Z,4.70
2022-12-24T19:36:23.941Z,4.40
2022-12-24T19:38:52.196Z,4.70
2022-12-24T19:41:21.734Z,4.60
2022-12-24T19:43:51.147Z,5.73
2022-12-24T19:46:21.051Z,4.77
2022-12-24T19:48:50.746Z,4.80
2022-12-24T19:51:19.140Z,4.97
2022-12-24T19:53:49.454Z,4.70
2022-12-24T19:56:18.177Z,5.40
2022-12-24T19:58:46.533Z,5.30
2022-12-24T20:01:16.778Z,4.80
2022-12-24T20:03:45.656Z,4.70
2022-12-24T20:06:14.936Z,5.20
2022-12-24T20:08:43.158Z,5.23
2022-12-24T20:11:13.989Z,5.90
2022-12-24T20:13:42.442Z,5.77
2022-12-24T20:16:13.095Z,5.27
2022-12-24T20:18:41.439Z,5.50
2022-12-24T20:21:11.104Z,5.07
2022-12-24T20:23:39.791Z,5.30
2022-12-24T20:26:10.280Z,5.10
2022-12-24T20:28:40.762Z,5.20
2022-12-24T20:31:15.897Z,6.07
2022-12-24T20:33:44.771Z,5.37
2022-12-24T20:36:13.810Z,5.50
2022-12-24T20:38:42.011Z,6.70
2022-12-24T20:41:11.464Z,7.60
2022-12-24T20:43:47.423Z,7.50
2022-12-24T20:46:16.942Z,7.93
2022-12-24T20:48:45.186Z,7.23
2022-12-24T20:51:22.872Z,8.67
2022-12-24T20:53:52.141Z,8.37
2022-12-24T20:56:20.488Z,9.13
2022-12-24T20:58:50.086Z,8.60
2022-12-24T21:01:19.985Z,8.70
2022-12-24T21:03:48.550Z,8.57
2022-12-24T21:06:17.979Z,10.30
2022-12-24T21:08:46.620Z,10.80
2022-12-24T21:11:32.131Z,9.83
2022-12-24T21:14:03.111Z,10.67
2022-12-24T21:16:32.111Z,10.33
2022-12-24T21:19:00.489Z,9.60
2022-12-24T21:21:28.907Z,9.27
2022-12-24T21:23:57.104Z,10.27
2022-12-24T21:26:25.429Z,9.70
2022-12-24T21:28:53.644Z,8.13
2022-12-24T21:31:23.494Z,10.13
2022-12-24T21:33:51.679Z,9.53
2022-12-24T21:36:20.271Z,8.17
2022-12-24T21:38:48.994Z,8.07
2022-12-24T21:41:19.581Z,8.00
2022-12-24T21:43:48.003Z,8.60
2022-12-24T21:46:19.444Z,8.33
2022-12-24T21:49:06.559Z,8.53
2022-12-24T21:51:34.830Z,8.43
2022-12-24T21:54:20.240Z,7.93
2022-12-24T21:57:05.656Z,7.43
2022-12-24T21:59:33.962Z,7.70
2022-12-24T22:02:02.656Z,7.57
2022-12-24T22:04:33.452Z,7.77
2022-12-24T22:07:18.928Z,7.57
2022-12-24T22:10:04.567Z,7.53
2022-12-24T22:12:35.662Z,7.87
2022-12-24T22:15:07.413Z,7.50
2022-12-24T22:17:35.579Z,9.03
2022-12-24T22:20:05.843Z,9.17
2022-12-24T22:22:33.937Z,8.30
2022-12-24T22:25:02.078Z,8.17
2022-12-24T22:27:30.376Z,8.63
2022-12-24T22:29:58.762Z,6.97
2022-12-24T22:32:26.988Z,7.40
2022-12-24T22:34:55.126Z,7.30
2022-12-24T22:37:24.955Z,6.20
2022-12-24T22:39:53.075Z,6.63
2022-12-24T22:42:21.496Z,7.30
2022-12-24T22:44:49.705Z,5.10
2022-12-24T22:47:17.729Z,5.33
2022-12-24T22:49:45.803Z,5.20
2022-12-24T22:52:13.986Z,5.70
2022-12-24T22:54:43.549Z,4.90
2022-12-24T22:57:11.937Z,5.50
2022-12-24T22:59:40.244Z,5.63
2022-12-24T23:02:08.938Z,5.00
2022-12-24T23:04:37.610Z,5.30
2022-12-24T23:07:06.033Z,5.77
2022-12-24T23:09:34.574Z,5.67
2022-12-24T23:12:04.185Z,5.53
2022-12-24T23:14:49.605Z,5.57
2022-12-24T23:17:17.861Z,5.60
2022-12-24T23:19:46.172Z,4.50
2022-12-24T23:22:14.417Z,4.47
2022-12-24T23:24:42.584Z,4.77
2022-12-24T23:27:12.043Z,4.80
2022-12-24T23:29:40.317Z,4.07
2022-12-24T23:32:08.391Z,3.97
2022-12-24T23:34:36.451Z,3.73
2022-12-24T23:37:04.577Z,4.20
2022-12-24T23:39:32.771Z,3.70
2022-12-24T23:42:00.954Z,3.70
2022-12-24T23:44:32.775Z,3.40
2022-12-24T23:47:01.251Z,3.63
2022-12-24T23:49:29.482Z,2.90
2022-12-24T23:51:57.640Z,3.37
2022-12-24T23:54:25.849Z,2.90
2022-12-24T23:56:54.043Z,3.60
2022-12-24T23:59:23.363Z,3.20
